createdAt,value
2022-12-12T05:00:30.743Z,89.97
2022-12-12T05:01:30.715Z,89.55
2022-12-12T05:02:30.649Z,90.18
2022-12-12T05:03:30.583Z,90.70
2022-12-12T05:04:30.572Z,90.39
2022-12-12T05:05:30.564Z,90.70
2022-12-12T05:06:30.550Z,91.22
2022-12-12T05:07:33.852Z,90.74
2022-12-12T05:08:31.586Z,91.06
2022-12-12T05:09:30.523Z,90.84
2022-12-12T05:10:30.525Z,91.79
2022-12-12T05:11:35.546Z,91.22
2022-12-12T05:12:30.483Z,91.69
2022-12-12T05:13:30.512Z,91.58
2022-12-12T05:14:30.467Z,91.69
2022-12-12T05:15:30.449Z,91.37
2022-12-12T05:16:30.502Z,91.75
2022-12-12T05:17:30.430Z,91.96
2022-12-12T05:18:30.428Z,91.43
2022-12-12T05:19:30.417Z,91.02
2022-12-12T05:20:30.419Z,90.91
2022-12-12T05:21:30.383Z,91.54
2022-12-12T05:22:35.405Z,91.69
2022-12-12T05:23:34.468Z,91.54
2022-12-12T05:24:30.366Z,91.69
2022-12-12T05:25:30.410Z,91.22
2022-12-12T05:26:30.334Z,91.43
2022-12-12T05:27:30.323Z,91.54
2022-12-12T05:28:30.320Z,91.22
2022-12-12T05:29:30.297Z,90.70
2022-12-12T05:30:30.354Z,90.28
2022-12-12T05:31:30.273Z,90.39
2022-12-12T05:32:30.285Z,90.39
2022-12-12T05:33:35.291Z,90.49
2022-12-12T05:34:30.245Z,90.49
2022-12-12T05:35:30.228Z,90.59
2022-12-12T05:36:30.220Z,90.39
2022-12-12T05:37:30.211Z,90.81
2022-12-12T05:38:30.258Z,90.91
2022-12-12T05:39:30.185Z,90.39
2022-12-12T05:40:30.178Z,90.59
2022-12-12T05:41:30.164Z,89.97
2022-12-12T05:42:30.163Z,90.08
2022-12-12T05:43:30.157Z,89.97
2022-12-12T05:44:35.204Z,89.65
2022-12-12T05:45:30.119Z,90.22
2022-12-12T05:46:30.149Z,90.11
2022-12-12T05:47:30.098Z,90.70
2022-12-12T05:48:30.133Z,90.53
2022-12-12T05:49:30.077Z,91.27
2022-12-12T05:50:30.094Z,90.84
2022-12-12T05:51:30.052Z,91.06
2022-12-12T05:52:30.044Z,90.64
2022-12-12T05:53:30.031Z,90.70
2022-12-12T05:54:30.037Z,90.08
2022-12-12T05:55:35.036Z,89.97
2022-12-12T05:56:30.003Z,89.86
2022-12-12T05:57:29.987Z,89.76
2022-12-12T05:58:29.976Z,89.86
2022-12-12T05:59:29.984Z,89.76
2022-12-12T06:00:29.959Z,89.23
2022-12-12T06:01:29.965Z,89.45
2022-12-12T06:02:30.082Z,89.45
2022-12-12T06:03:29.921Z,89.23
2022-12-12T06:04:29.992Z,88.82
2022-12-12T06:05:30.363Z,88.71
2022-12-12T06:06:34.916Z,88.92
2022-12-12T06:07:29.892Z,89.03
2022-12-12T06:08:29.935Z,88.86
2022-12-12T06:09:29.867Z,88.75
2022-12-12T06:10:29.847Z,88.86
2022-12-12T06:11:29.839Z,89.07
2022-12-12T06:12:29.833Z,89.17
2022-12-12T06:13:29.810Z,89.38
2022-12-12T06:14:29.814Z,89.48
2022-12-12T06:15:29.861Z,89.90
2022-12-12T06:16:29.783Z,90.01
2022-12-12T06:17:34.789Z,89.48
2022-12-12T06:18:29.758Z,89.48
2022-12-12T06:19:29.790Z,89.48
2022-12-12T06:20:29.760Z,89.17
2022-12-12T06:21:29.728Z,89.48
2022-12-12T06:22:29.714Z,89.07
2022-12-12T06:23:29.701Z,88.96
2022-12-12T06:24:29.749Z,89.17
2022-12-12T06:25:29.679Z,88.75
2022-12-12T06:26:29.672Z,88.44
2022-12-12T06:27:29.657Z,88.27
2022-12-12T06:28:34.682Z,88.59
2022-12-12T06:29:29.662Z,88.90
2022-12-12T06:30:29.630Z,88.90
2022-12-12T06:31:29.640Z,88.79
2022-12-12T06:32:29.604Z,88.48
2022-12-12T06:33:29.627Z,88.48
2022-12-12T06:34:29.593Z,88.79
2022-12-12T06:35:29.612Z,89.15
2022-12-12T06:36:29.650Z,89.25
2022-12-12T06:37:29.547Z,89.36
2022-12-12T06:38:29.538Z,89.42
2022-12-12T06:39:34.564Z,89.22
2022-12-12T06:40:29.527Z,88.69
2022-12-12T06:41:29.607Z,88.79
2022-12-12T06:42:29.497Z,88.69
2022-12-12T06:43:29.480Z,88.79
2022-12-12T06:44:29.504Z,88.84
2022-12-12T06:45:29.494Z,88.94
2022-12-12T06:46:29.551Z,89.00
2022-12-12T06:47:29.443Z,88.90
2022-12-12T06:48:29.452Z,88.69
2022-12-12T06:49:29.495Z,88.59
2022-12-12T06:50:34.461Z,88.79
2022-12-12T06:51:29.429Z,88.90
2022-12-12T06:52:29.434Z,88.69
2022-12-12T06:53:29.432Z,88.27
2022-12-12T06:54:29.361Z,88.69
2022-12-12T06:55:29.432Z,88.37
2022-12-12T06:56:29.342Z,88.48
2022-12-12T06:57:29.344Z,88.48
2022-12-12T06:58:29.351Z,88.48
2022-12-12T06:59:29.323Z,88.17
2022-12-12T07:00:29.345Z,88.06
2022-12-12T07:01:34.385Z,88.06
2022-12-12T07:02:30.395Z,87.96
2022-12-12T07:03:29.282Z,88.27
2022-12-12T07:04:29.257Z,88.37
2022-12-12T07:05:29.251Z,88.37
2022-12-12T07:06:29.232Z,88.59
2022-12-12T07:07:29.217Z,88.48
2022-12-12T07:08:29.302Z,88.59
2022-12-12T07:09:29.197Z,88.34
2022-12-12T07:10:29.224Z,88.59
2022-12-12T07:11:29.171Z,88.65
2022-12-12T07:12:34.185Z,88.69
2022-12-12T07:13:29.235Z,88.69
2022-12-12T07:14:29.146Z,88.79
2022-12-12T07:15:29.187Z,88.44
2022-12-12T07:16:29.124Z,88.65
2022-12-12T07:17:29.119Z,88.59
2022-12-12T07:18:29.095Z,88.86
2022-12-12T07:19:29.089Z,88.96
2022-12-12T07:20:29.264Z,88.96
2022-12-12T07:21:29.068Z,89.38
2022-12-12T07:22:29.066Z,89.95
2022-12-12T07:23:34.081Z,90.16
2022-12-12T07:24:29.031Z,90.41
2022-12-12T07:25:29.056Z,90.30
2022-12-12T07:26:29.031Z,90.16
2022-12-12T07:27:29.001Z,90.93
2022-12-12T07:28:28.986Z,90.93
2022-12-12T07:29:28.977Z,91.14
2022-12-12T07:30:29.100Z,90.93
2022-12-12T07:31:29.084Z,90.61
2022-12-12T07:32:28.944Z,90.72
2022-12-12T07:33:39.489Z,90.20
2022-12-12T07:34:34.952Z,91.24
2022-12-12T07:35:28.919Z,90.83
2022-12-12T07:36:28.900Z,91.35
2022-12-12T07:37:28.914Z,91.35
2022-12-12T07:38:29.217Z,91.08
2022-12-12T07:39:28.887Z,91.87
2022-12-12T07:40:29.032Z,91.77
2022-12-12T07:41:29.276Z,91.72
2022-12-12T07:42:28.909Z,91.41
2022-12-12T07:43:28.822Z,90.89
2022-12-12T07:44:28.811Z,91.09
2022-12-12T07:45:33.833Z,91.09
2022-12-12T07:46:28.854Z,90.89
2022-12-12T07:47:28.779Z,90.30
2022-12-12T07:48:28.766Z,90.68
2022-12-12T07:49:28.758Z,90.72
2022-12-12T07:50:28.889Z,90.30
2022-12-12T07:51:28.731Z,90.72
2022-12-12T07:52:28.744Z,91.14
2022-12-12T07:53:28.745Z,90.93
2022-12-12T07:54:28.701Z,91.60
2022-12-12T07:55:28.723Z,91.91
2022-12-12T07:56:33.723Z,91.71
2022-12-12T07:57:28.707Z,92.29
2022-12-12T07:58:28.657Z,92.50
2022-12-12T07:59:28.643Z,91.77
2022-12-12T08:00:28.633Z,91.77
2022-12-12T08:01:28.694Z,91.66
2022-12-12T08:02:28.614Z,92.29
2022-12-12T08:03:28.605Z,91.41
2022-12-12T08:04:28.642Z,91.35
2022-12-12T08:05:28.580Z,91.20
2022-12-12T08:06:28.591Z,90.83
2022-12-12T08:07:33.589Z,91.56
2022-12-12T08:08:28.581Z,91.77
2022-12-12T08:09:28.551Z,91.56
2022-12-12T08:10:28.524Z,91.03
2022-12-12T08:11:28.550Z,91.24
2022-12-12T08:12:28.506Z,91.72
2022-12-12T08:13:28.500Z,91.14
2022-12-12T08:14:28.482Z,90.51
2022-12-12T08:15:28.485Z,91.09
2022-12-12T08:16:28.548Z,90.47
2022-12-12T08:17:28.445Z,90.36
2022-12-12T08:18:33.459Z,90.58
2022-12-12T08:19:28.439Z,90.26
2022-12-12T08:20:28.417Z,89.95
2022-12-12T08:21:28.425Z,89.90
2022-12-12T08:22:28.391Z,90.01
2022-12-12T08:23:28.384Z,89.53
2022-12-12T08:24:28.371Z,89.70
2022-12-12T08:25:28.356Z,89.59
2022-12-12T08:26:28.359Z,89.48
2022-12-12T08:27:28.358Z,89.17
2022-12-12T08:28:28.331Z,88.96
2022-12-12T08:29:33.336Z,89.17
2022-12-12T08:30:28.308Z,89.07
2022-12-12T08:31:28.434Z,88.96
2022-12-12T08:32:28.289Z,88.86
2022-12-12T08:33:28.268Z,88.54
2022-12-12T08:34:28.267Z,88.96
2022-12-12T08:35:28.246Z,88.59
2022-12-12T08:36:28.259Z,88.90
2022-12-12T08:37:28.229Z,89.32
2022-12-12T08:38:28.243Z,89.38
2022-12-12T08:39:28.218Z,89.07
2022-12-12T08:40:33.227Z,89.11
2022-12-12T08:41:28.198Z,88.96
2022-12-12T08:42:28.193Z,88.96
2022-12-12T08:43:28.182Z,89.07
2022-12-12T08:44:28.154Z,88.92
2022-12-12T08:45:28.135Z,88.29
2022-12-12T08:46:28.196Z,88.29
2022-12-12T08:47:28.130Z,88.19
2022-12-12T08:48:28.108Z,87.88
2022-12-12T08:49:28.091Z,88.09
2022-12-12T08:50:28.087Z,87.66
2022-12-12T08:51:33.104Z,87.66
2022-12-12T08:52:28.062Z,87.56
2022-12-12T08:53:28.051Z,87.46
2022-12-12T08:54:28.066Z,87.46
2022-12-12T08:55:28.026Z,87.29
2022-12-12T08:56:28.020Z,87.81
2022-12-12T08:57:28.029Z,87.81
2022-12-12T08:58:27.993Z,87.74
2022-12-12T08:59:28.466Z,88.06
2022-12-12T09:00:27.983Z,88.79
2022-12-12T09:01:28.027Z,89.11
2022-12-12T09:02:33.196Z,89.15
2022-12-12T09:03:29.762Z,89.47
2022-12-12T09:04:27.955Z,89.47
2022-12-12T09:05:27.923Z,89.63
2022-12-12T09:06:27.913Z,89.67
2022-12-12T09:07:27.906Z,89.53
2022-12-12T09:08:27.946Z,89.67
2022-12-12T09:09:27.874Z,90.09
2022-12-12T09:10:27.860Z,90.09
2022-12-12T09:11:27.856Z,89.78
2022-12-12T09:12:27.849Z,89.57
2022-12-12T09:13:32.866Z,89.95
2022-12-12T09:14:27.822Z,89.63
2022-12-12T09:15:27.828Z,89.53
2022-12-12T09:16:27.911Z,89.32
2022-12-12T09:17:27.833Z,89.22
2022-12-12T09:18:27.773Z,89.22
2022-12-12T09:19:27.766Z,89.00
2022-12-12T09:20:27.756Z,88.79
2022-12-12T09:21:27.747Z,89.11
2022-12-12T09:22:27.743Z,89.22
2022-12-12T09:23:27.787Z,89.11
2022-12-12T09:24:32.729Z,89.22
2022-12-12T09:25:27.705Z,89.17
2022-12-12T09:26:27.685Z,88.75
2022-12-12T09:27:27.692Z,88.29
2022-12-12T09:28:27.684Z,88.19
2022-12-12T09:29:27.666Z,87.73
2022-12-12T09:30:27.645Z,87.73
2022-12-12T09:31:27.706Z,87.63
2022-12-12T09:32:27.627Z,87.73
2022-12-12T09:33:27.628Z,87.21
2022-12-12T09:34:27.606Z,87.00
2022-12-12T09:35:32.610Z,86.16
2022-12-12T09:36:27.575Z,86.69
2022-12-12T09:37:27.573Z,86.27
2022-12-12T09:38:27.575Z,86.33
2022-12-12T09:39:27.585Z,86.37
2022-12-12T09:40:27.551Z,86.90
2022-12-12T09:41:27.531Z,85.85
2022-12-12T09:42:27.525Z,85.16
2022-12-12T09:43:29.662Z,86.35
2022-12-12T09:44:27.492Z,86.77
2022-12-12T09:45:27.615Z,87.39
2022-12-12T09:46:32.509Z,87.46
2022-12-12T09:47:27.455Z,87.29
2022-12-12T09:48:27.458Z,87.35
2022-12-12T09:49:27.473Z,87.46
2022-12-12T09:50:27.426Z,87.71
2022-12-12T09:51:27.411Z,88.02
2022-12-12T09:52:30.924Z,88.06
2022-12-12T09:53:27.400Z,88.23
2022-12-12T09:54:27.377Z,88.59
2022-12-12T09:55:27.365Z,88.90
2022-12-12T09:56:27.355Z,88.96
2022-12-12T09:57:32.366Z,88.96
2022-12-12T09:58:27.379Z,88.86
2022-12-12T09:59:27.325Z,89.03
2022-12-12T10:00:27.318Z,88.61
2022-12-12T10:01:27.314Z,88.19
2022-12-12T10:02:27.370Z,87.77
2022-12-12T10:03:27.293Z,87.56
2022-12-12T10:04:27.273Z,87.66
2022-12-12T10:05:27.262Z,87.21
2022-12-12T10:06:37.131Z,87.00
2022-12-12T10:07:28.242Z,85.64
2022-12-12T10:08:32.426Z,85.91
2022-12-12T10:09:27.217Z,85.39
2022-12-12T10:10:27.201Z,85.46
2022-12-12T10:11:27.194Z,84.77
2022-12-12T10:12:27.189Z,85.60
2022-12-12T10:13:27.197Z,84.66
2022-12-12T10:14:27.163Z,84.38
2022-12-12T10:15:27.149Z,84.38
2022-12-12T10:16:27.172Z,83.08
2022-12-12T10:17:27.133Z,82.18
2022-12-12T10:18:27.140Z,82.70
2022-12-12T10:19:32.127Z,82.35
2022-12-12T10:20:27.090Z,82.50
2022-12-12T10:21:27.082Z,82.29
2022-12-12T10:22:27.070Z,83.64
2022-12-12T10:23:27.071Z,83.08
2022-12-12T10:24:27.045Z,82.35
2022-12-12T10:25:27.037Z,82.56
2022-12-12T10:26:27.024Z,82.46
2022-12-12T10:27:27.038Z,82.35
2022-12-12T10:28:27.008Z,81.86
2022-12-12T10:29:27.004Z,81.38
2022-12-12T10:30:32.032Z,81.72
2022-12-12T10:31:27.002Z,80.43
2022-12-12T10:32:26.959Z,79.36
2022-12-12T10:33:26.946Z,80.72
2022-12-12T10:34:26.972Z,82.39
2022-12-12T10:35:27.136Z,83.83
2022-12-12T10:36:26.911Z,84.10
2022-12-12T10:37:26.908Z,84.20
2022-12-12T10:38:26.888Z,84.20
2022-12-12T10:39:26.899Z,84.34
2022-12-12T10:40:26.866Z,84.80
2022-12-12T10:41:31.882Z,85.18
2022-12-12T10:42:26.844Z,85.39
2022-12-12T10:43:26.833Z,84.83
2022-12-12T10:44:26.837Z,84.62
2022-12-12T10:45:26.866Z,83.83
2022-12-12T10:46:26.957Z,84.77
2022-12-12T10:47:26.791Z,84.73
2022-12-12T10:48:26.777Z,84.62
2022-12-12T10:49:26.778Z,83.92
2022-12-12T10:50:26.776Z,82.67
2022-12-12T10:51:26.747Z,82.46
2022-12-12T10:52:31.752Z,82.24
2022-12-12T10:53:26.724Z,80.33
2022-12-12T10:54:26.718Z,79.32
2022-12-12T10:55:26.747Z,79.60
2022-12-12T10:56:26.711Z,78.45
2022-12-12T10:57:26.684Z,78.97
2022-12-12T10:58:26.661Z,78.87
2022-12-12T10:59:26.666Z,78.52
2022-12-12T11:00:26.639Z,78.56
2022-12-12T11:01:52.208Z,78.28
2022-12-12T11:02:27.895Z,79.63
2022-12-12T11:03:31.686Z,79.43
2022-12-12T11:04:26.595Z,79.28
2022-12-12T11:05:26.598Z,78.63
2022-12-12T11:06:26.605Z,78.07
2022-12-12T11:07:26.564Z,77.03
2022-12-12T11:08:26.631Z,76.65
2022-12-12T11:09:26.539Z,77.97
2022-12-12T11:10:32.007Z,79.39
2022-12-12T11:11:27.519Z,80.23
2022-12-12T11:12:26.505Z,80.09
2022-12-12T11:13:26.495Z,79.98
2022-12-12T11:14:31.522Z,79.63
2022-12-12T11:15:26.474Z,79.18
2022-12-12T11:16:26.549Z,78.66
2022-12-12T11:17:26.450Z,77.83
2022-12-12T11:18:26.449Z,77.79
2022-12-12T11:19:26.427Z,77.79
2022-12-12T11:20:26.428Z,77.06
2022-12-12T11:21:26.409Z,76.92
2022-12-12T11:22:26.415Z,76.40
2022-12-12T11:23:26.383Z,76.37
2022-12-12T11:24:26.368Z,76.16
2022-12-12T11:25:31.391Z,75.67
2022-12-12T11:26:26.345Z,76.37
2022-12-12T11:27:26.337Z,75.46
2022-12-12T11:28:26.335Z,75.92
2022-12-12T11:29:26.318Z,77.66
2022-12-12T11:30:26.315Z,78.59
2022-12-12T11:31:26.362Z,78.83
2022-12-12T11:32:26.280Z,79.29
2022-12-12T11:33:26.273Z,79.91
2022-12-12T11:34:26.264Z,80.23
2022-12-12T11:35:26.262Z,80.44
2022-12-12T11:36:31.254Z,80.44
2022-12-12T11:37:26.221Z,80.96
2022-12-12T11:38:26.251Z,80.30
2022-12-12T11:39:26.206Z,80.26
2022-12-12T11:40:26.200Z,78.66
2022-12-12T11:41:26.178Z,78.56
2022-12-12T11:42:26.193Z,78.34
2022-12-12T11:43:26.175Z,77.83
2022-12-12T11:44:26.159Z,77.83
2022-12-12T11:45:26.217Z,78.11
2022-12-12T11:46:26.119Z,78.83
2022-12-12T11:47:31.148Z,78.77
2022-12-12T11:48:26.098Z,79.50
2022-12-12T11:49:26.093Z,79.71
2022-12-12T11:50:26.087Z,79.25
2022-12-12T11:51:26.068Z,79.88
2022-12-12T11:52:26.051Z,79.15
2022-12-12T11:53:26.044Z,79.29
2022-12-12T11:54:26.076Z,79.71
2022-12-12T11:55:26.031Z,79.60
2022-12-12T11:56:26.014Z,79.64
2022-12-12T11:57:26.011Z,79.95
2022-12-12T11:58:31.011Z,80.58
2022-12-12T11:59:25.975Z,80.27
2022-12-12T12:00:25.997Z,80.47
2022-12-12T12:01:25.954Z,80.99
2022-12-12T12:02:25.937Z,80.99
2022-12-12T12:03:26.020Z,80.54
2022-12-12T12:04:26.030Z,79.91
2022-12-12T12:05:25.913Z,79.50
2022-12-12T12:06:25.912Z,79.71
2022-12-12T12:07:25.887Z,79.39
2022-12-12T12:08:26.017Z,80.02
2022-12-12T12:09:30.922Z,79.39
2022-12-12T12:10:26.360Z,79.39
2022-12-12T12:11:25.859Z,79.85
2022-12-12T12:12:25.824Z,79.53
2022-12-12T12:13:25.821Z,79.64
2022-12-12T12:14:25.804Z,80.79
2022-12-12T12:15:25.795Z,80.37
2022-12-12T12:16:25.874Z,80.58
2022-12-12T12:17:25.780Z,80.44
2022-12-12T12:18:28.287Z,80.96
2022-12-12T12:19:25.754Z,81.16
2022-12-12T12:20:30.784Z,81.06
2022-12-12T12:21:25.730Z,80.85
2022-12-12T12:22:25.714Z,80.85
2022-12-12T12:23:25.822Z,80.51
2022-12-12T12:24:25.690Z,79.71
2022-12-12T12:25:25.704Z,79.60
2022-12-12T12:26:25.684Z,80.09
2022-12-12T12:27:25.657Z,79.57
2022-12-12T12:28:25.652Z,79.25
2022-12-12T12:29:25.639Z,79.81
2022-12-12T12:30:25.717Z,79.71
2022-12-12T12:31:30.652Z,79.25
2022-12-12T12:32:25.612Z,79.67
2022-12-12T12:33:25.595Z,79.67
2022-12-12T12:34:25.584Z,79.36
2022-12-12T12:35:25.628Z,80.30
2022-12-12T12:36:25.579Z,79.50
2022-12-12T12:37:25.543Z,79.43
2022-12-12T12:38:25.536Z,80.05
2022-12-12T12:39:25.522Z,80.37
2022-12-12T12:40:25.508Z,80.99
2022-12-12T12:41:25.547Z,80.89
2022-12-12T12:42:30.519Z,80.89
2022-12-12T12:43:25.476Z,80.99
2022-12-12T12:44:25.485Z,80.99
2022-12-12T12:45:25.475Z,81.48
2022-12-12T12:46:25.544Z,80.96
2022-12-12T12:47:25.436Z,80.96
2022-12-12T12:48:25.422Z,80.68
2022-12-12T12:49:25.407Z,81.10
2022-12-12T12:50:25.397Z,80.37
2022-12-12T12:51:25.400Z,80.47
2022-12-12T12:52:25.381Z,80.47
2022-12-12T12:53:30.425Z,80.89
2022-12-12T12:54:25.354Z,80.27
2022-12-12T12:55:25.339Z,80.65
2022-12-12T12:56:26.692Z,79.64
2022-12-12T12:57:25.338Z,80.16
2022-12-12T12:58:25.309Z,80.58
2022-12-12T12:59:25.297Z,81.31
2022-12-12T13:00:25.284Z,80.79
2022-12-12T13:01:25.303Z,81.10
2022-12-12T13:02:27.178Z,80.99
2022-12-12T13:03:25.251Z,80.37
2022-12-12T13:04:30.269Z,79.95
2022-12-12T13:05:25.227Z,80.51
2022-12-12T13:06:25.218Z,80.79
2022-12-12T13:07:25.218Z,80.30
2022-12-12T13:08:25.244Z,80.82
2022-12-12T13:09:25.193Z,81.35
2022-12-12T13:10:25.205Z,81.03
2022-12-12T13:11:25.162Z,81.03
2022-12-12T13:12:25.161Z,81.03
2022-12-12T13:13:25.191Z,81.03
2022-12-12T13:14:29.983Z,80.62
2022-12-12T13:15:31.248Z,80.30
2022-12-12T13:16:25.151Z,80.37
2022-12-12T13:17:25.103Z,79.78
2022-12-12T13:18:25.615Z,79.36
2022-12-12T13:19:25.102Z,79.47
2022-12-12T13:20:25.395Z,79.05
2022-12-12T13:21:25.063Z,78.49
2022-12-12T13:22:25.059Z,78.59
2022-12-12T13:23:25.031Z,79.05
2022-12-12T13:24:25.045Z,79.05
2022-12-12T13:25:25.006Z,78.32
2022-12-12T13:26:30.022Z,78.84
2022-12-12T13:27:25.013Z,78.84
2022-12-12T13:28:24.977Z,78.94
2022-12-12T13:29:25.009Z,79.36
2022-12-12T13:30:24.952Z,80.20
2022-12-12T13:31:24.953Z,80.41
2022-12-12T13:32:24.951Z,80.72
2022-12-12T13:33:24.957Z,81.13
2022-12-12T13:34:24.909Z,80.93
2022-12-12T13:35:24.899Z,80.72
2022-12-12T13:36:29.592Z,81.03
2022-12-12T13:37:30.912Z,81.62
2022-12-12T13:38:24.874Z,81.03
2022-12-12T13:39:24.852Z,80.99
2022-12-12T13:40:24.842Z,80.99
2022-12-12T13:41:24.836Z,80.89
2022-12-12T13:42:24.828Z,80.58
2022-12-12T13:43:24.820Z,80.23
2022-12-12T13:44:24.797Z,80.37
2022-12-12T13:45:24.811Z,80.16
2022-12-12T13:46:24.893Z,79.60
2022-12-12T13:47:24.776Z,79.74
2022-12-12T13:48:29.795Z,79.74
2022-12-12T13:49:24.740Z,79.74
2022-12-12T13:50:24.731Z,79.85
2022-12-12T13:51:24.718Z,79.64
2022-12-12T13:52:24.718Z,80.05
2022-12-12T13:53:24.717Z,80.47
2022-12-12T13:54:24.698Z,80.27
2022-12-12T13:55:24.674Z,80.37
2022-12-12T13:56:24.667Z,80.05
2022-12-12T13:57:24.656Z,80.68
2022-12-12T13:58:24.664Z,80.79
2022-12-12T13:59:29.655Z,80.47
2022-12-12T14:00:24.619Z,81.10
2022-12-12T14:01:24.714Z,80.16
2022-12-12T14:02:24.658Z,79.64
2022-12-12T14:03:24.602Z,79.64
2022-12-12T14:04:24.579Z,79.95
2022-12-12T14:05:24.600Z,79.43
2022-12-12T14:06:24.559Z,79.95
2022-12-12T14:07:24.543Z,79.43
2022-12-12T14:08:24.697Z,79.64
2022-12-12T14:09:41.196Z,79.74
2022-12-12T14:10:30.590Z,79.74
2022-12-12T14:11:24.496Z,79.53
2022-12-12T14:12:30.832Z,79.43
2022-12-12T14:13:25.503Z,79.64
2022-12-12T14:14:24.476Z,79.53
2022-12-12T14:15:24.458Z,79.85
2022-12-12T14:16:24.495Z,79.43
2022-12-12T14:17:24.451Z,79.64
2022-12-12T14:18:29.790Z,79.43
2022-12-12T14:19:25.416Z,79.53
2022-12-12T14:20:24.404Z,80.16
2022-12-12T14:21:29.411Z,79.64
2022-12-12T14:22:24.375Z,80.05
2022-12-12T14:23:24.389Z,79.43
2022-12-12T14:24:24.358Z,79.53
2022-12-12T14:25:24.369Z,79.85
2022-12-12T14:26:24.355Z,79.64
2022-12-12T14:27:24.391Z,80.05
2022-12-12T14:28:24.327Z,79.43
2022-12-12T14:29:24.302Z,79.11
2022-12-12T14:30:24.292Z,79.11
2022-12-12T14:31:24.352Z,79.22
2022-12-12T14:32:29.312Z,79.22
2022-12-12T14:33:24.297Z,78.59
2022-12-12T14:34:24.248Z,78.70
2022-12-12T14:35:24.241Z,78.70
2022-12-12T14:36:24.221Z,78.49
2022-12-12T14:37:24.207Z,78.70
2022-12-12T14:38:27.607Z,78.80
2022-12-12T14:39:24.188Z,78.42
2022-12-12T14:40:24.178Z,78.74
2022-12-12T14:41:24.198Z,78.94
2022-12-12T14:42:24.154Z,78.70
2022-12-12T14:43:29.181Z,78.70
2022-12-12T14:44:34.995Z,78.70
2022-12-12T14:45:25.130Z,78.91
2022-12-12T14:46:24.134Z,79.11
2022-12-12T14:47:24.110Z,78.94
2022-12-12T14:48:24.108Z,78.94
2022-12-12T14:49:24.086Z,78.21
2022-12-12T14:50:24.074Z,78.84
2022-12-12T14:51:29.217Z,78.80
2022-12-12T14:52:25.064Z,78.91
2022-12-12T14:53:24.037Z,78.42
2022-12-12T14:54:29.074Z,78.74
2022-12-12T14:55:24.038Z,78.63
2022-12-12T14:56:24.005Z,78.53
2022-12-12T14:57:23.989Z,78.63
2022-12-12T14:58:24.028Z,79.15
2022-12-12T14:59:24.012Z,78.74
2022-12-12T15:00:23.998Z,78.63
2022-12-12T15:01:24.007Z,78.63
2022-12-12T15:02:24.065Z,78.94
2022-12-12T15:03:24.098Z,79.15
2022-12-12T15:04:23.955Z,78.94
2022-12-12T15:05:28.940Z,79.05
2022-12-12T15:06:23.910Z,79.05
2022-12-12T15:07:23.979Z,79.05
2022-12-12T15:08:23.935Z,78.94
2022-12-12T15:09:23.935Z,78.94
2022-12-12T15:10:23.850Z,78.63
2022-12-12T15:11:23.868Z,78.94
2022-12-12T15:12:23.842Z,79.15
2022-12-12T15:13:23.823Z,79.57
2022-12-12T15:14:23.827Z,79.57
2022-12-12T15:15:23.801Z,79.68
2022-12-12T15:16:28.850Z,79.57
2022-12-12T15:17:23.849Z,79.05
2022-12-12T15:18:23.780Z,79.05
2022-12-12T15:19:23.766Z,78.63
2022-12-12T15:20:23.853Z,78.46
2022-12-12T15:21:23.766Z,78.88
2022-12-12T15:22:23.736Z,79.29
2022-12-12T15:23:23.709Z,78.67
2022-12-12T15:24:23.726Z,78.88
2022-12-12T15:25:23.683Z,78.98
2022-12-12T15:26:23.690Z,79.19
2022-12-12T15:27:28.743Z,79.29
2022-12-12T15:28:23.654Z,79.50
2022-12-12T15:29:23.690Z,79.61
2022-12-12T15:30:23.682Z,79.71
2022-12-12T15:31:23.716Z,79.82
2022-12-12T15:32:23.812Z,79.71
2022-12-12T15:33:23.618Z,79.82
2022-12-12T15:34:23.596Z,79.50
2022-12-12T15:35:23.570Z,79.92
2022-12-12T15:36:23.593Z,80.24
2022-12-12T15:37:23.549Z,80.24
2022-12-12T15:38:28.561Z,80.24
2022-12-12T15:39:23.562Z,80.44
2022-12-12T15:40:23.528Z,80.44
2022-12-12T15:41:23.505Z,80.16
2022-12-12T15:42:23.495Z,80.34
2022-12-12T15:43:23.533Z,81.18
2022-12-12T15:44:23.471Z,81.11
2022-12-12T15:45:23.472Z,81.00
2022-12-12T15:46:23.524Z,81.32
2022-12-12T15:47:23.472Z,81.52
2022-12-12T15:48:23.430Z,81.84
2022-12-12T15:49:28.464Z,81.63
2022-12-12T15:50:23.467Z,81.84
2022-12-12T15:51:25.456Z,81.52
2022-12-12T15:52:23.506Z,81.73
2022-12-12T15:53:23.375Z,81.73
2022-12-12T15:54:23.367Z,81.95
2022-12-12T15:55:23.429Z,82.26
2022-12-12T15:56:23.346Z,81.84
2022-12-12T15:57:23.420Z,82.36
2022-12-12T15:58:29.096Z,82.29
2022-12-12T15:59:24.356Z,82.46
2022-12-12T16:00:28.364Z,82.46
2022-12-12T16:01:23.321Z,82.57
2022-12-12T16:02:23.353Z,82.57
2022-12-12T16:03:23.275Z,82.36
2022-12-12T16:04:23.287Z,82.78
2022-12-12T16:05:23.249Z,82.78
2022-12-12T16:06:23.238Z,82.82
2022-12-12T16:07:23.221Z,82.67
2022-12-12T16:08:27.245Z,82.78
2022-12-12T16:09:24.209Z,82.92
2022-12-12T16:10:23.210Z,82.78
2022-12-12T16:11:28.193Z,82.71
2022-12-12T16:12:23.169Z,82.60
2022-12-12T16:13:23.149Z,82.67
2022-12-12T16:14:23.148Z,82.78
2022-12-12T16:15:23.133Z,82.36
2022-12-12T16:16:23.195Z,82.46
2022-12-12T16:17:23.105Z,82.57
2022-12-12T16:18:23.110Z,82.36
2022-12-12T16:19:23.085Z,82.46
2022-12-12T16:20:28.741Z,82.78
2022-12-12T16:21:24.076Z,82.78
2022-12-12T16:22:28.077Z,83.09
2022-12-12T16:23:23.043Z,82.57
2022-12-12T16:24:23.052Z,82.26
2022-12-12T16:25:23.017Z,84.56
2022-12-12T16:26:23.067Z,84.14
2022-12-12T16:27:23.006Z,83.51
2022-12-12T16:28:25.561Z,82.67
2022-12-12T16:29:23.009Z,82.46
2022-12-12T16:30:22.964Z,82.26
2022-12-12T16:31:23.127Z,83.30
2022-12-12T16:32:22.950Z,83.65
2022-12-12T16:33:27.962Z,83.40
2022-12-12T16:34:22.923Z,83.30
2022-12-12T16:35:22.947Z,82.67
2022-12-12T16:36:23.339Z,82.89
2022-12-12T16:37:22.893Z,83.09
2022-12-12T16:38:22.875Z,83.30
2022-12-12T16:39:22.884Z,83.62
2022-12-12T16:40:22.876Z,83.40
2022-12-12T16:41:22.981Z,83.40
2022-12-12T16:42:22.833Z,83.20
2022-12-12T16:43:22.846Z,83.09
2022-12-12T16:44:27.873Z,83.34
2022-12-12T16:45:22.800Z,83.86
2022-12-12T16:46:22.820Z,83.62
2022-12-12T16:47:22.795Z,83.62
2022-12-12T16:48:22.780Z,84.07
2022-12-12T16:49:22.778Z,84.17
2022-12-12T16:50:22.752Z,84.07
2022-12-12T16:51:22.731Z,84.07
2022-12-12T16:52:22.734Z,84.49
2022-12-12T16:53:22.734Z,84.28
2022-12-12T16:54:22.709Z,84.07
2022-12-12T16:55:27.723Z,83.97
2022-12-12T16:56:22.682Z,84.07
2022-12-12T16:57:22.677Z,84.17
2022-12-12T16:58:22.663Z,85.12
2022-12-12T16:59:22.644Z,83.86
2022-12-12T17:00:22.638Z,84.49
2022-12-12T17:01:22.684Z,84.80
2022-12-12T17:02:22.628Z,84.80
2022-12-12T17:03:26.569Z,84.70
2022-12-12T17:04:22.689Z,84.59
2022-12-12T17:05:22.584Z,84.95
2022-12-12T17:06:27.812Z,84.80
2022-12-12T17:07:23.111Z,84.49
2022-12-12T17:08:22.675Z,84.84
2022-12-12T17:09:28.301Z,84.59
2022-12-12T17:10:23.532Z,84.70
2022-12-12T17:11:22.537Z,84.74
2022-12-12T17:12:22.523Z,84.53
2022-12-12T17:13:22.489Z,85.05
2022-12-12T17:14:22.526Z,85.58
2022-12-12T17:15:23.382Z,85.58
2022-12-12T17:16:27.577Z,85.89
2022-12-12T17:17:28.507Z,85.58
2022-12-12T17:18:22.520Z,85.12
2022-12-12T17:19:22.455Z,84.49
2022-12-12T17:20:22.411Z,84.59
2022-12-12T17:21:22.401Z,84.28
2022-12-12T17:22:22.406Z,84.49
2022-12-12T17:23:29.537Z,85.01
2022-12-12T17:24:22.368Z,85.12
2022-12-12T17:25:22.356Z,84.84
2022-12-12T17:26:22.350Z,84.91
2022-12-12T17:27:22.403Z,85.85
2022-12-12T17:28:27.374Z,84.39
2022-12-12T17:29:22.387Z,84.70
2022-12-12T17:30:22.300Z,84.80
2022-12-12T17:31:22.394Z,84.80
2022-12-12T17:32:24.554Z,84.70
2022-12-12T17:33:22.314Z,84.17
2022-12-12T17:34:22.259Z,84.42
2022-12-12T17:35:22.266Z,84.07
2022-12-12T17:36:22.238Z,84.07
2022-12-12T17:37:22.250Z,84.59
2022-12-12T17:38:22.238Z,84.95
2022-12-12T17:39:27.236Z,84.63
2022-12-12T17:40:22.243Z,84.74
2022-12-12T17:41:22.229Z,84.84
2022-12-12T17:42:22.190Z,84.39
2022-12-12T17:43:22.180Z,84.74
2022-12-12T17:44:22.154Z,84.84
2022-12-12T17:45:22.137Z,84.63
2022-12-12T17:46:22.152Z,84.53
2022-12-12T17:47:22.128Z,84.42
2022-12-12T17:48:22.100Z,84.59
2022-12-12T17:49:22.139Z,84.63
2022-12-12T17:50:27.135Z,84.84
2022-12-12T17:51:22.093Z,85.05
2022-12-12T17:52:22.083Z,85.58